sensor_id;sensor_type;location;lat;lon;timestamp;pressure;altitude;pressure_sealevel;temperature;humidity
40948;BME280;49382;-25.924;28.194;2023-02-28T00:01:51;85340.55;;;21.13;42.34
40948;BME280;49382;-25.924;28.194;2023-02-28T00:04:17;85330.99;;;19.84;44.32
40948;BME280;49382;-25.924;28.194;2023-02-28T00:06:43;85329.45;;;22.39;40.55
40948;BME280;49382;-25.924;28.194;2023-02-28T00:09:08;85324.06;;;21.94;40.36
40948;BME280;49382;-25.924;28.194;2023-02-28T00:11:34;85316.76;;;19.31;45.20
40948;BME280;49382;-25.924;28.194;2023-02-28T00:14:00;85312.31;;;18.32;47.12
40948;BME280;49382;-25.924;28.194;2023-02-28T00:16:26;85305.04;;;17.96;48.24
40948;BME280;49382;-25.924;28.194;2023-02-28T00:18:52;85306.60;;;19.76;45.19
40948;BME280;49382;-25.924;28.194;2023-02-28T00:21:18;85313.95;;;21.38;41.75
40948;BME280;49382;-25.924;28.194;2023-02-28T00:23:43;85321.05;;;22.01;41.65
40948;BME280;49382;-25.924;28.194;2023-02-28T00:26:09;85314.47;;;20.95;43.10
40948;BME280;49382;-25.924;28.194;2023-02-28T00:28:35;85310.89;;;19.69;45.04
40948;BME280;49382;-25.924;28.194;2023-02-28T00:31:01;85309.74;;;19.81;45.39
40948;BME280;49382;-25.924;28.194;2023-02-28T00:33:26;85312.56;;;19.53;45.88
40948;BME280;49382;-25.924;28.194;2023-02-28T00:35:52;85313.79;;;19.83;45.81
40948;BME280;49382;-25.924;28.194;2023-02-28T00:38:18;85306.19;;;19.60;45.70
40948;BME280;49382;-25.924;28.194;2023-02-28T00:40:43;85308.76;;;21.00;43.81
40948;BME280;49382;-25.924;28.194;2023-02-28T00:43:09;85307.88;;;21.99;41.73
40948;BME280;49382;-25.924;28.194;2023-02-28T00:45:35;85304.57;;;21.49;42.91
40948;BME280;49382;-25.924;28.194;2023-02-28T00:48:00;85294.20;;;19.41;45.94
40948;BME280;49382;-25.924;28.194;2023-02-28T00:50:26;85292.03;;;20.52;44.99
40948;BME280;49382;-25.924;28.194;2023-02-28T00:52:52;85289.46;;;18.87;48.31
40948;BME280;49382;-25.924;28.194;2023-02-28T00:55:18;85284.90;;;19.20;47.70
40948;BME280;49382;-25.924;28.194;2023-02-28T00:57:44;85278.10;;;18.54;49.06
40948;BME280;49382;-25.924;28.194;2023-02-28T01:00:10;85279.59;;;17.86;51.21
40948;BME280;49382;-25.924;28.194;2023-02-28T01:02:35;85284.46;;;17.72;51.18
40948;BME280;49382;-25.924;28.194;2023-02-28T01:05:01;85290.75;;;18.91;49.72
40948;BME280;49382;-25.924;28.194;2023-02-28T01:07:26;85298.38;;;18.50;50.33
40948;BME280;49382;-25.924;28.194;2023-02-28T01:09:52;85297.08;;;20.83;45.68
40948;BME280;49382;-25.924;28.194;2023-02-28T01:12:18;85298.53;;;19.58;47.14
40948;BME280;49382;-25.924;28.194;2023-02-28T01:14:44;85295.02;;;19.22;48.13
40948;BME280;49382;-25.924;28.194;2023-02-28T01:17:09;85297.67;;;21.13;43.81
40948;BME280;49382;-25.924;28.194;2023-02-28T01:19:35;85294.27;;;19.77;46.15
40948;BME280;49382;-25.924;28.194;2023-02-28T01:22:02;85295.06;;;21.15;43.15
40948;BME280;49382;-25.924;28.194;2023-02-28T01:24:26;85290.16;;;19.39;47.04
40948;BME280;49382;-25.924;28.194;2023-02-28T01:26:52;85285.90;;;18.83;48.33
40948;BME280;49382;-25.924;28.194;2023-02-28T01:29:18;85285.52;;;20.48;45.46
40948;BME280;49382;-25.924;28.194;2023-02-28T01:31:44;85284.46;;;19.98;46.39
40948;BME280;49382;-25.924;28.194;2023-02-28T01:34:09;85290.26;;;18.82;48.56
40948;BME280;49382;-25.924;28.194;2023-02-28T01:36:35;85288.96;;;19.86;46.51
40948;BME280;49382;-25.924;28.194;2023-02-28T01:39:01;85284.35;;;19.88;46.42
40948;BME280;49382;-25.924;28.194;2023-02-28T01:41:29;85283.48;;;20.10;46.15
40948;BME280;49382;-25.924;28.194;2023-02-28T01:43:57;85280.09;;;20.59;44.22
40948;BME280;49382;-25.924;28.194;2023-02-28T01:46:18;85274.63;;;20.13;45.32
40948;BME280;49382;-25.924;28.194;2023-02-28T01:48:47;85281.18;;;21.62;43.19
40948;BME280;49382;-25.924;28.194;2023-02-28T01:51:13;85280.87;;;22.30;41.93
40948;BME280;49382;-25.924;28.194;2023-02-28T01:53:39;85278.17;;;19.28;47.29
40948;BME280;49382;-25.924;28.194;2023-02-28T01:56:05;85273.77;;;20.22;46.08
40948;BME280;49382;-25.924;28.194;2023-02-28T01:58:27;85268.88;;;19.62;47.02
40948;BME280;49382;-25.924;28.194;2023-02-28T02:00:53;85266.80;;;20.74;44.60
40948;BME280;49382;-25.924;28.194;2023-02-28T02:03:20;85262.39;;;20.09;45.93
40948;BME280;49382;-25.924;28.194;2023-02-28T02:05:45;85265.48;;;20.45;45.60
40948;BME280;49382;-25.924;28.194;2023-02-28T02:08:13;85261.80;;;20.15;45.59
40948;BME280;49382;-25.924;28.194;2023-02-28T02:10:39;85260.20;;;21.06;44.16
40948;BME280;49382;-25.924;28.194;2023-02-28T02:15:32;85245.45;;;20.44;46.10
40948;BME280;49382;-25.924;28.194;2023-02-28T02:17:55;85242.48;;;18.71;48.54
40948;BME280;49382;-25.924;28.194;2023-02-28T02:22:53;85242.93;;;21.76;43.00
40948;BME280;49382;-25.924;28.194;2023-02-28T02:25:18;85237.53;;;19.77;46.44
40948;BME280;49382;-25.924;28.194;2023-02-28T02:27:48;85237.57;;;20.74;44.79
40948;BME280;49382;-25.924;28.194;2023-02-28T02:34:59;85239.37;;;18.76;49.37
40948;BME280;49382;-25.924;28.194;2023-02-28T02:37:28;85235.04;;;19.67;46.70
40948;BME280;49382;-25.924;28.194;2023-02-28T02:39:50;85234.39;;;17.78;51.26
40948;BME280;49382;-25.924;28.194;2023-02-28T02:42:15;85231.78;;;19.11;48.65
40948;BME280;49382;-25.924;28.194;2023-02-28T02:44:39;85229.68;;;19.19;48.72
40948;BME280;49382;-25.924;28.194;2023-02-28T02:47:06;85222.14;;;19.99;46.64
40948;BME280;49382;-25.924;28.194;2023-02-28T02:49:30;85219.70;;;18.57;49.67
40948;BME280;49382;-25.924;28.194;2023-02-28T02:51:54;85221.39;;;19.56;47.22
40948;BME280;49382;-25.924;28.194;2023-02-28T02:54:21;85220.63;;;20.65;44.90
40948;BME280;49382;-25.924;28.194;2023-02-28T02:56:46;85213.57;;;19.14;47.47
40948;BME280;49382;-25.924;28.194;2023-02-28T02:59:14;85212.07;;;18.63;49.13
40948;BME280;49382;-25.924;28.194;2023-02-28T03:01:37;85208.13;;;18.58;49.34
40948;BME280;49382;-25.924;28.194;2023-02-28T03:04:05;85205.32;;;19.55;46.72
40948;BME280;49382;-25.924;28.194;2023-02-28T03:06:27;85201.82;;;19.60;46.07
40948;BME280;49382;-25.924;28.194;2023-02-28T03:08:53;85200.95;;;17.94;50.05
40948;BME280;49382;-25.924;28.194;2023-02-28T03:11:20;85197.52;;;17.53;50.84
40948;BME280;49382;-25.924;28.194;2023-02-28T03:13:56;85199.02;;;19.27;47.94
40948;BME280;49382;-25.924;28.194;2023-02-28T03:18:43;85200.35;;;20.24;45.18
40948;BME280;49382;-25.924;28.194;2023-02-28T03:21:08;85194.23;;;18.34;48.74
40948;BME280;49382;-25.924;28.194;2023-02-28T03:23:35;85199.33;;;19.55;46.54
40948;BME280;49382;-25.924;28.194;2023-02-28T03:25:58;85197.58;;;17.58;50.16
40948;BME280;49382;-25.924;28.194;2023-02-28T03:28:24;85202.08;;;19.38;47.23
40948;BME280;49382;-25.924;28.194;2023-02-28T03:30:49;85208.20;;;21.50;43.02
40948;BME280;49382;-25.924;28.194;2023-02-28T03:33:15;85208.54;;;19.84;45.61
40948;BME280;49382;-25.924;28.194;2023-02-28T03:35:40;85209.73;;;20.80;45.20
40948;BME280;49382;-25.924;28.194;2023-02-28T03:38:06;85211.48;;;20.47;44.96
40948;BME280;49382;-25.924;28.194;2023-02-28T03:40:32;85208.69;;;19.42;45.88
40948;BME280;49382;-25.924;28.194;2023-02-28T03:42:58;85209.85;;;19.43;45.73
40948;BME280;49382;-25.924;28.194;2023-02-28T03:45:21;85216.97;;;18.41;48.06
40948;BME280;49382;-25.924;28.194;2023-02-28T03:47:49;85224.56;;;19.65;46.44
40948;BME280;49382;-25.924;28.194;2023-02-28T03:50:16;85222.54;;;17.82;49.73
40948;BME280;49382;-25.924;28.194;2023-02-28T03:52:42;85220.59;;;16.57;53.10
40948;BME280;49382;-25.924;28.194;2023-02-28T03:55:05;85220.54;;;18.28;50.19
40948;BME280;49382;-25.924;28.194;2023-02-28T03:57:32;85221.70;;;17.81;51.38
40948;BME280;49382;-25.924;28.194;2023-02-28T03:59:56;85225.88;;;17.74;50.39
40948;BME280;49382;-25.924;28.194;2023-02-28T04:02:17;85222.54;;;16.91;52.45
40948;BME280;49382;-25.924;28.194;2023-02-28T04:04:43;85217.85;;;20.04;46.36
40948;BME280;49382;-25.924;28.194;2023-02-28T04:07:09;85213.71;;;19.71;46.54
40948;BME280;49382;-25.924;28.194;2023-02-28T04:09:34;85208.09;;;16.90;51.67
40948;BME280;49382;-25.924;28.194;2023-02-28T04:11:59;85205.31;;;18.94;48.21
40948;BME280;49382;-25.924;28.194;2023-02-28T04:14:25;85202.08;;;18.06;50.52
40948;BME280;49382;-25.924;28.194;2023-02-28T04:16:51;85201.11;;;18.31;49.69
40948;BME280;49382;-25.924;28.194;2023-02-28T04:19:17;85203.13;;;17.83;50.76
40948;BME280;49382;-25.924;28.194;2023-02-28T04:21:44;85202.27;;;17.39;52.07
40948;BME280;49382;-25.924;28.194;2023-02-28T04:24:10;85196.94;;;16.44;53.74
40948;BME280;49382;-25.924;28.194;2023-02-28T04:26:34;85196.08;;;16.88;53.72
40948;BME280;49382;-25.924;28.194;2023-02-28T04:28:59;85191.66;;;16.47;54.61
40948;BME280;49382;-25.924;28.194;2023-02-28T04:31:23;85189.88;;;16.35;54.61
40948;BME280;49382;-25.924;28.194;2023-02-28T04:33:48;85186.43;;;16.72;54.50
40948;BME280;49382;-25.924;28.194;2023-02-28T04:36:14;85185.41;;;17.15;53.26
40948;BME280;49382;-25.924;28.194;2023-02-28T04:38:40;85187.40;;;17.79;51.68
40948;BME280;49382;-25.924;28.194;2023-02-28T04:41:05;85183.30;;;17.43;52.74
40948;BME280;49382;-25.924;28.194;2023-02-28T04:43:31;85178.59;;;17.10;53.69
40948;BME280;49382;-25.924;28.194;2023-02-28T04:45:58;85176.40;;;16.49;54.10
40948;BME280;49382;-25.924;28.194;2023-02-28T04:48:22;85186.97;;;17.61;52.79
40948;BME280;49382;-25.924;28.194;2023-02-28T04:50:48;85189.27;;;17.97;51.11
40948;BME280;49382;-25.924;28.194;2023-02-28T04:53:13;85190.28;;;17.15;53.99
40948;BME280;49382;-25.924;28.194;2023-02-28T04:55:39;85189.82;;;16.85;53.72
40948;BME280;49382;-25.924;28.194;2023-02-28T04:58:05;85187.40;;;16.91;54.14
40948;BME280;49382;-25.924;28.194;2023-02-28T05:00:31;85186.77;;;16.89;54.36
40948;BME280;49382;-25.924;28.194;2023-02-28T05:02:56;85185.99;;;18.47;50.16
40948;BME280;49382;-25.924;28.194;2023-02-28T05:05:22;85189.02;;;17.26;53.26
40948;BME280;49382;-25.924;28.194;2023-02-28T05:07:48;85191.56;;;17.99;51.23
40948;BME280;49382;-25.924;28.194;2023-02-28T05:10:13;85194.88;;;18.08;49.88
40948;BME280;49382;-25.924;28.194;2023-02-28T05:12:38;85194.76;;;18.09;49.29
40948;BME280;49382;-25.924;28.194;2023-02-28T05:15:05;85193.28;;;17.55;52.19
40948;BME280;49382;-25.924;28.194;2023-02-28T05:17:30;85199.53;;;21.37;44.25
40948;BME280;49382;-25.924;28.194;2023-02-28T05:19:56;85202.22;;;20.45;45.68
40948;BME280;49382;-25.924;28.194;2023-02-28T05:22:21;85202.70;;;20.25;44.57
40948;BME280;49382;-25.924;28.194;2023-02-28T05:24:47;85201.59;;;18.87;47.54
40948;BME280;49382;-25.924;28.194;2023-02-28T05:27:12;85200.85;;;20.18;45.91
40948;BME280;49382;-25.924;28.194;2023-02-28T05:29:38;85202.97;;;21.12;44.42
40948;BME280;49382;-25.924;28.194;2023-02-28T05:32:04;85202.92;;;21.91;41.95
40948;BME280;49382;-25.924;28.194;2023-02-28T05:34:29;85202.14;;;19.35;45.83
40948;BME280;49382;-25.924;28.194;2023-02-28T05:36:55;85208.08;;;20.50;43.69
40948;BME280;49382;-25.924;28.194;2023-02-28T05:39:21;85203.80;;;20.06;44.74
40948;BME280;49382;-25.924;28.194;2023-02-28T05:41:47;85199.87;;;19.69;44.78
40948;BME280;49382;-25.924;28.194;2023-02-28T05:44:12;85211.43;;;21.57;42.37
40948;BME280;49382;-25.924;28.194;2023-02-28T05:46:38;85217.84;;;21.50;42.29
40948;BME280;49382;-25.924;28.194;2023-02-28T05:49:04;85221.64;;;21.42;42.38
40948;BME280;49382;-25.924;28.194;2023-02-28T05:51:30;85219.06;;;21.27;41.67
40948;BME280;49382;-25.924;28.194;2023-02-28T05:53:59;85218.85;;;21.46;41.63
40948;BME280;49382;-25.924;28.194;2023-02-28T05:56:21;85222.38;;;22.94;39.32
40948;BME280;49382;-25.924;28.194;2023-02-28T05:58:47;85218.41;;;22.89;38.54
40948;BME280;49382;-25.924;28.194;2023-02-28T06:01:21;85214.88;;;24.62;36.73
40948;BME280;49382;-25.924;28.194;2023-02-28T06:03:38;85218.41;;;25.06;35.82
40948;BME280;49382;-25.924;28.194;2023-02-28T06:06:05;85220.53;;;22.75;38.59
40948;BME280;49382;-25.924;28.194;2023-02-28T06:08:30;85222.25;;;23.04;38.58
40948;BME280;49382;-25.924;28.194;2023-02-28T06:13:22;85222.31;;;21.59;41.34
40948;BME280;49382;-25.924;28.194;2023-02-28T06:15:47;85224.03;;;21.40;41.88
40948;BME280;49382;-25.924;28.194;2023-02-28T06:18:13;85226.27;;;22.47;39.41
40948;BME280;49382;-25.924;28.194;2023-02-28T06:20:39;85230.68;;;22.18;40.89
40948;BME280;49382;-25.924;28.194;2023-02-28T06:23:04;85224.17;;;22.81;38.40
40948;BME280;49382;-25.924;28.194;2023-02-28T06:25:30;85233.82;;;21.00;43.38
40948;BME280;49382;-25.924;28.194;2023-02-28T06:27:56;85238.78;;;23.99;37.58
40948;BME280;49382;-25.924;28.194;2023-02-28T06:30:22;85240.91;;;24.54;35.68
40948;BME280;49382;-25.924;28.194;2023-02-28T06:32:48;85240.36;;;22.79;37.74
40948;BME280;49382;-25.924;28.194;2023-02-28T06:35:13;85235.05;;;23.65;37.43
40948;BME280;49382;-25.924;28.194;2023-02-28T06:37:39;85237.99;;;24.46;36.18
40948;BME280;49382;-25.924;28.194;2023-02-28T06:40:05;85240.81;;;24.59;35.71
40948;BME280;49382;-25.924;28.194;2023-02-28T06:42:30;85235.13;;;24.85;34.90
40948;BME280;49382;-25.924;28.194;2023-02-28T06:44:56;85240.11;;;22.52;38.33
40948;BME280;49382;-25.924;28.194;2023-02-28T06:47:22;85235.25;;;24.27;35.98
40948;BME280;49382;-25.924;28.194;2023-02-28T06:49:48;85231.61;;;23.25;36.32
40948;BME280;49382;-25.924;28.194;2023-02-28T06:52:14;85232.10;;;23.58;36.44
40948;BME280;49382;-25.924;28.194;2023-02-28T06:54:39;85231.67;;;25.05;35.04
40948;BME280;49382;-25.924;28.194;2023-02-28T06:57:05;85227.35;;;23.28;37.04
40948;BME280;49382;-25.924;28.194;2023-02-28T06:59:31;85229.67;;;23.85;35.96
40948;BME280;49382;-25.924;28.194;2023-02-28T07:01:56;85225.00;;;25.17;34.25
40948;BME280;49382;-25.924;28.194;2023-02-28T07:04:22;85229.28;;;22.41;38.47
40948;BME280;49382;-25.924;28.194;2023-02-28T07:06:48;85232.52;;;23.99;35.73
40948;BME280;49382;-25.924;28.194;2023-02-28T07:09:13;85232.23;;;22.19;37.42
40948;BME280;49382;-25.924;28.194;2023-02-28T07:11:39;85227.83;;;24.27;34.41
40948;BME280;49382;-25.924;28.194;2023-02-28T07:14:05;85226.76;;;23.15;37.75
40948;BME280;49382;-25.924;28.194;2023-02-28T07:16:31;85225.88;;;24.87;34.95
40948;BME280;49382;-25.924;28.194;2023-02-28T07:18:56;85222.68;;;23.20;34.74
40948;BME280;49382;-25.924;28.194;2023-02-28T07:21:23;85216.20;;;24.40;32.79
40948;BME280;49382;-25.924;28.194;2023-02-28T07:23:48;85216.81;;;26.96;30.56
40948;BME280;49382;-25.924;28.194;2023-02-28T07:26:16;85209.18;;;25.16;32.54
40948;BME280;49382;-25.924;28.194;2023-02-28T07:28:39;85216.69;;;27.04;30.83
40948;BME280;49382;-25.924;28.194;2023-02-28T07:31:06;85207.03;;;26.83;29.56
40948;BME280;49382;-25.924;28.194;2023-02-28T07:33:31;85204.06;;;25.07;32.63
40948;BME280;49382;-25.924;28.194;2023-02-28T07:36:01;85202.40;;;23.30;34.39
40948;BME280;49382;-25.924;28.194;2023-02-28T07:38:22;85191.34;;;23.66;33.60
40948;BME280;49382;-25.924;28.194;2023-02-28T07:40:48;85199.40;;;26.33;31.15
40948;BME280;49382;-25.924;28.194;2023-02-28T07:43:13;85197.08;;;27.67;28.84
40948;BME280;49382;-25.924;28.194;2023-02-28T07:45:39;85194.18;;;25.45;31.94
40948;BME280;49382;-25.924;28.194;2023-02-28T07:48:05;85197.07;;;25.23;32.26
40948;BME280;49382;-25.924;28.194;2023-02-28T07:50:31;85195.10;;;23.68;33.11
40948;BME280;49382;-25.924;28.194;2023-02-28T07:52:57;85198.87;;;25.48;31.28
40948;BME280;49382;-25.924;28.194;2023-02-28T07:55:22;85195.50;;;27.03;29.85
40948;BME280;49382;-25.924;28.194;2023-02-28T07:57:48;85187.91;;;27.00;27.53
40948;BME280;49382;-25.924;28.194;2023-02-28T08:00:14;85184.19;;;27.02;28.62
40948;BME280;49382;-25.924;28.194;2023-02-28T08:02:40;85182.13;;;28.16;27.58
40948;BME280;49382;-25.924;28.194;2023-02-28T08:05:06;85173.12;;;28.62;28.01
40948;BME280;49382;-25.924;28.194;2023-02-28T08:07:31;85177.35;;;27.51;28.32
40948;BME280;49382;-25.924;28.194;2023-02-28T08:09:56;85169.32;;;27.47;27.94
40948;BME280;49382;-25.924;28.194;2023-02-28T08:12:22;85172.61;;;27.97;27.36
40948;BME280;49382;-25.924;28.194;2023-02-28T08:14:48;85165.09;;;28.62;25.70
40948;BME280;49382;-25.924;28.194;2023-02-28T08:17:14;85165.64;;;26.95;27.69
40948;BME280;49382;-25.924;28.194;2023-02-28T08:19:39;85163.51;;;28.44;26.28
40948;BME280;49382;-25.924;28.194;2023-02-28T08:22:05;85166.37;;;26.09;27.76
40948;BME280;49382;-25.924;28.194;2023-02-28T08:24:31;85162.48;;;28.63;26.25
40948;BME280;49382;-25.924;28.194;2023-02-28T08:26:57;85163.15;;;27.64;26.95
40948;BME280;49382;-25.924;28.194;2023-02-28T08:29:22;85160.31;;;25.67;30.01
40948;BME280;49382;-25.924;28.194;2023-02-28T08:31:48;85161.97;;;28.22;27.44
40948;BME280;49382;-25.924;28.194;2023-02-28T08:34:15;85167.96;;;27.34;29.70
40948;BME280;49382;-25.924;28.194;2023-02-28T08:36:40;85161.59;;;26.38;30.86
40948;BME280;49382;-25.924;28.194;2023-02-28T08:39:06;85159.35;;;28.59;26.94
40948;BME280;49382;-25.924;28.194;2023-02-28T08:41:31;85160.37;;;26.98;28.84
40948;BME280;49382;-25.924;28.194;2023-02-28T08:43:57;85162.78;;;29.02;26.49
40948;BME280;49382;-25.924;28.194;2023-02-28T08:46:23;85162.35;;;27.69;27.62
40948;BME280;49382;-25.924;28.194;2023-02-28T08:48:52;85160.43;;;29.08;26.93
40948;BME280;49382;-25.924;28.194;2023-02-28T08:51:16;85158.24;;;25.97;28.75
40948;BME280;49382;-25.924;28.194;2023-02-28T08:53:40;85156.52;;;28.35;27.41
40948;BME280;49382;-25.924;28.194;2023-02-28T08:56:08;85156.42;;;26.14;28.44
40948;BME280;49382;-25.924;28.194;2023-02-28T08:58:32;85151.66;;;25.75;28.59
40948;BME280;49382;-25.924;28.194;2023-02-28T09:00:57;85145.24;;;26.55;28.08
40948;BME280;49382;-25.924;28.194;2023-02-28T09:03:23;85145.07;;;26.06;29.87
40948;BME280;49382;-25.924;28.194;2023-02-28T09:05:54;85149.80;;;27.13;29.40
40948;BME280;49382;-25.924;28.194;2023-02-28T09:08:14;85144.70;;;26.96;31.18
40948;BME280;49382;-25.924;28.194;2023-02-28T09:10:40;85141.77;;;28.70;29.59
40948;BME280;49382;-25.924;28.194;2023-02-28T09:13:07;85136.89;;;28.01;28.00
40948;BME280;49382;-25.924;28.194;2023-02-28T09:15:32;85134.05;;;25.44;31.36
40948;BME280;49382;-25.924;28.194;2023-02-28T09:17:57;85137.36;;;26.18;30.58
40948;BME280;49382;-25.924;28.194;2023-02-28T09:20:23;85133.57;;;26.76;29.61
40948;BME280;49382;-25.924;28.194;2023-02-28T09:22:48;85133.41;;;28.25;28.19
40948;BME280;49382;-25.924;28.194;2023-02-28T09:25:14;85130.33;;;29.06;27.16
40948;BME280;49382;-25.924;28.194;2023-02-28T09:27:40;85127.97;;;27.49;28.90
40948;BME280;49382;-25.924;28.194;2023-02-28T09:30:07;85117.20;;;27.97;28.39
40948;BME280;49382;-25.924;28.194;2023-02-28T09:32:32;85117.00;;;28.33;27.44
40948;BME280;49382;-25.924;28.194;2023-02-28T09:34:57;85115.85;;;27.24;28.95
40948;BME280;49382;-25.924;28.194;2023-02-28T09:37:23;85110.19;;;29.33;26.08
40948;BME280;49382;-25.924;28.194;2023-02-28T09:39:48;85108.49;;;28.64;26.25
40948;BME280;49382;-25.924;28.194;2023-02-28T09:42:23;85103.09;;;29.51;25.39
40948;BME280;49382;-25.924;28.194;2023-02-28T09:44:43;85095.94;;;28.69;26.86
40948;BME280;49382;-25.924;28.194;2023-02-28T09:47:14;85093.66;;;28.97;27.29
40948;BME280;49382;-25.924;28.194;2023-02-28T09:49:37;85095.28;;;28.06;29.40
40948;BME280;49382;-25.924;28.194;2023-02-28T09:52:01;85088.93;;;26.92;28.51
40948;BME280;49382;-25.924;28.194;2023-02-28T09:54:27;85087.70;;;25.33;31.11
40948;BME280;49382;-25.924;28.194;2023-02-28T09:56:51;85090.08;;;26.87;30.04
40948;BME280;49382;-25.924;28.194;2023-02-28T09:59:24;85081.23;;;27.90;30.25
40948;BME280;49382;-25.924;28.194;2023-02-28T10:01:45;85078.77;;;26.16;32.75
40948;BME280;49382;-25.924;28.194;2023-02-28T10:04:12;85078.57;;;26.89;29.67
40948;BME280;49382;-25.924;28.194;2023-02-28T10:06:36;85069.73;;;25.75;31.10
40948;BME280;49382;-25.924;28.194;2023-02-28T10:09:01;85074.86;;;28.60;27.49
40948;BME280;49382;-25.924;28.194;2023-02-28T10:11:24;85079.88;;;26.03;29.30
40948;BME280;49382;-25.924;28.194;2023-02-28T10:13:53;85075.78;;;28.23;26.94
40948;BME280;49382;-25.924;28.194;2023-02-28T10:16:17;85066.74;;;28.31;26.39
40948;BME280;49382;-25.924;28.194;2023-02-28T10:18:43;85062.65;;;26.42;29.39
40948;BME280;49382;-25.924;28.194;2023-02-28T10:21:08;85056.58;;;28.79;28.05
40948;BME280;49382;-25.924;28.194;2023-02-28T10:23:35;85061.03;;;29.36;25.49
40948;BME280;49382;-25.924;28.194;2023-02-28T10:26:00;85056.41;;;29.62;25.35
40948;BME280;49382;-25.924;28.194;2023-02-28T10:28:25;85055.96;;;29.00;25.93
40948;BME280;49382;-25.924;28.194;2023-02-28T10:30:50;85052.47;;;29.58;27.52
40948;BME280;49382;-25.924;28.194;2023-02-28T10:33:22;85052.02;;;29.26;26.16
40948;BME280;49382;-25.924;28.194;2023-02-28T10:35:40;85049.96;;;27.48;28.15
40948;BME280;49382;-25.924;28.194;2023-02-28T10:38:14;85043.59;;;26.66;30.85
40948;BME280;49382;-25.924;28.194;2023-02-28T10:40:34;85040.82;;;26.45;28.65
40948;BME280;49382;-25.924;28.194;2023-02-28T10:42:58;85040.32;;;25.31;30.13
40948;BME280;49382;-25.924;28.194;2023-02-28T10:45:24;85046.81;;;26.56;29.47
40948;BME280;49382;-25.924;28.194;2023-02-28T10:47:53;85041.41;;;27.25;27.19
40948;BME280;49382;-25.924;28.194;2023-02-28T10:52:40;85027.86;;;29.19;25.68
40948;BME280;49382;-25.924;28.194;2023-02-28T10:57:31;85022.82;;;28.82;26.33
40948;BME280;49382;-25.924;28.194;2023-02-28T11:00:08;85024.91;;;28.83;27.55
40948;BME280;49382;-25.924;28.194;2023-02-28T11:02:29;85025.90;;;28.40;26.48
40948;BME280;49382;-25.924;28.194;2023-02-28T11:04:48;85020.69;;;26.48;28.07
40948;BME280;49382;-25.924;28.194;2023-02-28T11:07:19;85017.80;;;25.77;29.34
40948;BME280;49382;-25.924;28.194;2023-02-28T11:09:40;85014.39;;;26.41;27.06
40948;BME280;49382;-25.924;28.194;2023-02-28T11:12:07;85010.25;;;27.39;27.34
40948;BME280;49382;-25.924;28.194;2023-02-28T11:14:33;85006.23;;;25.43;28.68
40948;BME280;49382;-25.924;28.194;2023-02-28T11:17:00;85005.87;;;26.02;28.16
40948;BME280;49382;-25.924;28.194;2023-02-28T11:19:25;84999.55;;;27.12;27.42
40948;BME280;49382;-25.924;28.194;2023-02-28T11:21:53;84999.73;;;26.87;27.28
40948;BME280;49382;-25.924;28.194;2023-02-28T11:24:21;85001.03;;;26.50;27.43
40948;BME280;49382;-25.924;28.194;2023-02-28T11:26:42;84995.29;;;27.59;26.91
40948;BME280;49382;-25.924;28.194;2023-02-28T11:29:16;84988.47;;;27.40;25.88
40948;BME280;49382;-25.924;28.194;2023-02-28T11:31:31;84986.82;;;27.58;27.59
40948;BME280;49382;-25.924;28.194;2023-02-28T11:33:57;84978.82;;;27.76;26.10
40948;BME280;49382;-25.924;28.194;2023-02-28T11:36:25;84973.16;;;27.77;25.00
40948;BME280;49382;-25.924;28.194;2023-02-28T11:38:49;84971.65;;;25.06;26.75
40948;BME280;49382;-25.924;28.194;2023-02-28T11:41:24;84969.54;;;27.69;25.54
40948;BME280;49382;-25.924;28.194;2023-02-28T11:43:53;84967.08;;;28.18;24.85
40948;BME280;49382;-25.924;28.194;2023-02-28T11:46:16;84961.93;;;28.35;24.84
40948;BME280;49382;-25.924;28.194;2023-02-28T11:48:37;84959.59;;;28.73;24.52
40948;BME280;49382;-25.924;28.194;2023-02-28T11:51:05;84954.58;;;29.44;24.53
40948;BME280;49382;-25.924;28.194;2023-02-28T11:55:52;84947.48;;;28.52;24.50
40948;BME280;49382;-25.924;28.194;2023-02-28T11:58:23;84944.53;;;29.32;23.95
40948;BME280;49382;-25.924;28.194;2023-02-28T12:03:16;84938.96;;;29.30;24.00
40948;BME280;49382;-25.924;28.194;2023-02-28T12:05:36;84938.02;;;28.62;25.31
40948;BME280;49382;-25.924;28.194;2023-02-28T12:08:05;84938.34;;;29.01;25.15
40948;BME280;49382;-25.924;28.194;2023-02-28T12:10:25;84937.47;;;28.47;24.33
40948;BME280;49382;-25.924;28.194;2023-02-28T12:12:59;84934.70;;;27.34;25.86
40948;BME280;49382;-25.924;28.194;2023-02-28T12:17:50;84925.78;;;28.19;25.23
40948;BME280;49382;-25.924;28.194;2023-02-28T12:20:14;84913.12;;;27.30;25.95
40948;BME280;49382;-25.924;28.194;2023-02-28T12:22:32;84915.92;;;27.08;25.89
40948;BME280;49382;-25.924;28.194;2023-02-28T12:25:05;84919.59;;;26.52;26.55
40948;BME280;49382;-25.924;28.194;2023-02-28T12:27:27;84913.01;;;27.11;25.50
40948;BME280;49382;-25.924;28.194;2023-02-28T12:29:53;84906.91;;;26.63;25.94
40948;BME280;49382;-25.924;28.194;2023-02-28T12:32:18;84900.12;;;27.92;25.09
40948;BME280;49382;-25.924;28.194;2023-02-28T12:34:42;84893.63;;;26.81;26.38
40948;BME280;49382;-25.924;28.194;2023-02-28T12:37:09;84893.60;;;28.92;25.10
40948;BME280;49382;-25.924;28.194;2023-02-28T12:39:35;84890.16;;;28.50;25.16
40948;BME280;49382;-25.924;28.194;2023-02-28T12:42:01;84889.07;;;28.16;24.80
40948;BME280;49382;-25.924;28.194;2023-02-28T12:44:28;84885.42;;;28.17;24.84
40948;BME280;49382;-25.924;28.194;2023-02-28T12:46:50;84881.34;;;27.70;25.10
40948;BME280;49382;-25.924;28.194;2023-02-28T12:49:17;84877.20;;;28.00;24.98
40948;BME280;49382;-25.924;28.194;2023-02-28T12:51:40;84873.85;;;27.21;26.11
40948;BME280;49382;-25.924;28.194;2023-02-28T12:54:12;84871.10;;;28.15;24.55
40948;BME280;49382;-25.924;28.194;2023-02-28T12:56:37;84866.57;;;29.10;24.20
40948;BME280;49382;-25.924;28.194;2023-02-28T12:58:59;84863.10;;;27.98;25.62